sensor_id;sensor_type;location;lat;lon;timestamp;P1;durP1;ratioP1;P2;durP2;ratioP2
4355;SDS011;64374;51.482;7.408;2022-12-07T00:01:45;33.73;;;21.47;;
4355;SDS011;64374;51.482;7.408;2022-12-07T00:04:16;36.33;;;22.50;;
4355;SDS011;64374;51.482;7.408;2022-12-07T00:06:50;33.00;;;21.57;;
4355;SDS011;64374;51.482;7.408;2022-12-07T00:09:20;37.30;;;23.57;;
4355;SDS011;64374;51.482;7.408;2022-12-07T00:11:49;35.97;;;23.00;;
4355;SDS011;64374;51.482;7.408;2022-12-07T00:14:18;34.47;;;23.00;;
4355;SDS011;64374;51.482;7.408;2022-12-07T00:16:48;29.10;;;19.80;;
4355;SDS011;64374;51.482;7.408;2022-12-07T00:19:17;34.97;;;22.40;;
4355;SDS011;64374;51.482;7.408;2022-12-07T00:21:47;32.33;;;19.83;;
4355;SDS011;64374;51.482;7.408;2022-12-07T00:24:16;36.80;;;22.07;;
4355;SDS011;64374;51.482;7.408;2022-12-07T00:26:44;33.20;;;21.30;;
4355;SDS011;64374;51.482;7.408;2022-12-07T00:29:15;31.67;;;20.27;;
4355;SDS011;64374;51.482;7.408;2022-12-07T00:31:44;33.33;;;20.73;;
4355;SDS011;64374;51.482;7.408;2022-12-07T00:34:16;35.53;;;22.07;;
4355;SDS011;64374;51.482;7.408;2022-12-07T00:36:47;34.33;;;20.27;;
4355;SDS011;64374;51.482;7.408;2022-12-07T00:39:17;36.33;;;22.67;;
4355;SDS011;64374;51.482;7.408;2022-12-07T00:41:45;26.90;;;19.70;;
4355;SDS011;64374;51.482;7.408;2022-12-07T00:44:13;31.93;;;19.33;;
4355;SDS011;64374;51.482;7.408;2022-12-07T00:46:41;29.77;;;18.07;;
4355;SDS011;64374;51.482;7.408;2022-12-07T00:49:12;29.43;;;18.93;;
4355;SDS011;64374;51.482;7.408;2022-12-07T00:51:42;28.70;;;19.63;;
4355;SDS011;64374;51.482;7.408;2022-12-07T00:54:14;29.77;;;19.23;;
4355;SDS011;64374;51.482;7.408;2022-12-07T00:56:42;38.60;;;21.40;;
4355;SDS011;64374;51.482;7.408;2022-12-07T00:59:12;25.60;;;18.30;;
4355;SDS011;64374;51.482;7.408;2022-12-07T01:01:41;29.80;;;18.30;;
4355;SDS011;64374;51.482;7.408;2022-12-07T01:04:10;24.03;;;16.17;;
4355;SDS011;64374;51.482;7.408;2022-12-07T01:06:44;26.40;;;17.87;;
4355;SDS011;64374;51.482;7.408;2022-12-07T01:09:13;22.10;;;15.53;;
4355;SDS011;64374;51.482;7.408;2022-12-07T01:11:42;28.53;;;18.70;;
4355;SDS011;64374;51.482;7.408;2022-12-07T01:14:12;27.47;;;17.30;;
4355;SDS011;64374;51.482;7.408;2022-12-07T01:16:41;25.30;;;17.87;;
4355;SDS011;64374;51.482;7.408;2022-12-07T01:19:12;29.50;;;18.47;;
4355;SDS011;64374;51.482;7.408;2022-12-07T01:21:43;28.13;;;18.17;;
4355;SDS011;64374;51.482;7.408;2022-12-07T01:24:11;25.33;;;16.03;;
4355;SDS011;64374;51.482;7.408;2022-12-07T01:26:41;22.60;;;17.23;;
4355;SDS011;64374;51.482;7.408;2022-12-07T01:29:09;30.97;;;18.33;;
4355;SDS011;64374;51.482;7.408;2022-12-07T01:31:39;30.70;;;17.97;;
4355;SDS011;64374;51.482;7.408;2022-12-07T01:34:07;30.97;;;19.20;;
4355;SDS011;64374;51.482;7.408;2022-12-07T01:36:37;25.20;;;17.50;;
4355;SDS011;64374;51.482;7.408;2022-12-07T01:39:06;24.87;;;17.33;;
4355;SDS011;64374;51.482;7.408;2022-12-07T01:41:39;29.00;;;18.33;;
4355;SDS011;64374;51.482;7.408;2022-12-07T01:46:50;31.47;;;19.80;;
4355;SDS011;64374;51.482;7.408;2022-12-07T01:49:24;30.47;;;18.93;;
4355;SDS011;64374;51.482;7.408;2022-12-07T01:51:58;40.00;;;20.60;;
4355;SDS011;64374;51.482;7.408;2022-12-07T01:54:50;35.10;;;19.50;;
4355;SDS011;64374;51.482;7.408;2022-12-07T01:57:24;33.90;;;20.00;;
4355;SDS011;64374;51.482;7.408;2022-12-07T01:59:53;27.13;;;19.17;;
4355;SDS011;64374;51.482;7.408;2022-12-07T02:02:24;31.57;;;20.73;;
4355;SDS011;64374;51.482;7.408;2022-12-07T02:04:57;29.70;;;19.70;;
4355;SDS011;64374;51.482;7.408;2022-12-07T02:07:27;30.90;;;19.27;;
4355;SDS011;64374;51.482;7.408;2022-12-07T02:09:56;29.40;;;20.60;;
4355;SDS011;64374;51.482;7.408;2022-12-07T02:12:28;32.50;;;20.80;;
4355;SDS011;64374;51.482;7.408;2022-12-07T02:14:59;28.33;;;19.93;;
4355;SDS011;64374;51.482;7.408;2022-12-07T02:17:31;30.77;;;19.37;;
4355;SDS011;64374;51.482;7.408;2022-12-07T02:20:12;27.43;;;18.90;;
4355;SDS011;64374;51.482;7.408;2022-12-07T02:23:11;25.40;;;16.80;;
4355;SDS011;64374;51.482;7.408;2022-12-07T02:29:25;30.70;;;18.07;;
4355;SDS011;64374;51.482;7.408;2022-12-07T02:32:00;34.80;;;23.10;;
4355;SDS011;64374;51.482;7.408;2022-12-07T02:34:38;30.30;;;18.60;;
4355;SDS011;64374;51.482;7.408;2022-12-07T02:37:16;31.40;;;19.77;;
4355;SDS011;64374;51.482;7.408;2022-12-07T02:39:51;28.70;;;19.23;;
4355;SDS011;64374;51.482;7.408;2022-12-07T02:42:24;26.97;;;18.53;;
4355;SDS011;64374;51.482;7.408;2022-12-07T02:44:59;25.07;;;17.23;;
4355;SDS011;64374;51.482;7.408;2022-12-07T02:47:29;24.33;;;18.03;;
4355;SDS011;64374;51.482;7.408;2022-12-07T02:49:59;26.70;;;19.20;;
4355;SDS011;64374;51.482;7.408;2022-12-07T02:52:31;25.10;;;17.97;;
4355;SDS011;64374;51.482;7.408;2022-12-07T02:54:59;26.17;;;17.90;;
4355;SDS011;64374;51.482;7.408;2022-12-07T02:57:34;24.83;;;17.10;;
4355;SDS011;64374;51.482;7.408;2022-12-07T03:00:17;27.90;;;18.13;;
4355;SDS011;64374;51.482;7.408;2022-12-07T03:02:50;25.33;;;16.73;;
4355;SDS011;64374;51.482;7.408;2022-12-07T03:05:26;26.10;;;17.73;;
4355;SDS011;64374;51.482;7.408;2022-12-07T03:08:18;27.00;;;17.60;;
4355;SDS011;64374;51.482;7.408;2022-12-07T03:10:54;27.23;;;18.60;;
4355;SDS011;64374;51.482;7.408;2022-12-07T03:13:28;21.17;;;16.20;;
4355;SDS011;64374;51.482;7.408;2022-12-07T03:16:05;29.70;;;19.00;;
4355;SDS011;64374;51.482;7.408;2022-12-07T03:18:39;30.70;;;17.53;;
4355;SDS011;64374;51.482;7.408;2022-12-07T03:21:14;25.90;;;17.70;;
4355;SDS011;64374;51.482;7.408;2022-12-07T03:23:47;25.63;;;17.83;;
4355;SDS011;64374;51.482;7.408;2022-12-07T03:26:21;24.40;;;17.13;;
4355;SDS011;64374;51.482;7.408;2022-12-07T03:28:54;24.00;;;16.77;;
4355;SDS011;64374;51.482;7.408;2022-12-07T03:31:28;26.43;;;17.60;;
4355;SDS011;64374;51.482;7.408;2022-12-07T03:34:02;28.30;;;17.27;;
4355;SDS011;64374;51.482;7.408;2022-12-07T03:36:35;26.00;;;16.90;;
4355;SDS011;64374;51.482;7.408;2022-12-07T03:39:11;26.03;;;17.97;;
4355;SDS011;64374;51.482;7.408;2022-12-07T03:41:47;24.80;;;16.83;;
4355;SDS011;64374;51.482;7.408;2022-12-07T03:44:16;22.13;;;15.77;;
4355;SDS011;64374;51.482;7.408;2022-12-07T03:46:49;24.07;;;16.60;;
4355;SDS011;64374;51.482;7.408;2022-12-07T03:49:25;26.20;;;16.00;;
4355;SDS011;64374;51.482;7.408;2022-12-07T03:52:00;25.53;;;16.70;;
4355;SDS011;64374;51.482;7.408;2022-12-07T03:54:38;28.10;;;15.90;;
4355;SDS011;64374;51.482;7.408;2022-12-07T03:57:09;28.10;;;16.30;;
4355;SDS011;64374;51.482;7.408;2022-12-07T03:59:40;28.70;;;16.37;;
4355;SDS011;64374;51.482;7.408;2022-12-07T04:02:12;21.50;;;15.50;;
4355;SDS011;64374;51.482;7.408;2022-12-07T04:04:41;21.73;;;16.03;;
4355;SDS011;64374;51.482;7.408;2022-12-07T04:07:10;21.60;;;14.80;;
4355;SDS011;64374;51.482;7.408;2022-12-07T04:09:39;23.20;;;15.10;;
4355;SDS011;64374;51.482;7.408;2022-12-07T04:12:10;25.40;;;16.93;;
4355;SDS011;64374;51.482;7.408;2022-12-07T04:14:41;24.63;;;15.33;;
4355;SDS011;64374;51.482;7.408;2022-12-07T04:17:13;22.60;;;15.60;;
4355;SDS011;64374;51.482;7.408;2022-12-07T04:19:42;20.13;;;14.90;;
4355;SDS011;64374;51.482;7.408;2022-12-07T04:22:12;27.57;;;14.77;;
4355;SDS011;64374;51.482;7.408;2022-12-07T04:24:40;22.40;;;14.30;;
4355;SDS011;64374;51.482;7.408;2022-12-07T04:27:09;23.20;;;13.90;;
4355;SDS011;64374;51.482;7.408;2022-12-07T04:29:37;20.60;;;14.10;;
4355;SDS011;64374;51.482;7.408;2022-12-07T04:32:06;19.60;;;13.00;;
4355;SDS011;64374;51.482;7.408;2022-12-07T04:34:36;20.60;;;11.80;;
4355;SDS011;64374;51.482;7.408;2022-12-07T04:37:05;24.13;;;15.07;;
4355;SDS011;64374;51.482;7.408;2022-12-07T04:39:33;16.83;;;13.37;;
4355;SDS011;64374;51.482;7.408;2022-12-07T04:42:02;18.50;;;11.93;;
4355;SDS011;64374;51.482;7.408;2022-12-07T04:44:31;16.00;;;11.80;;
4355;SDS011;64374;51.482;7.408;2022-12-07T04:46:59;19.97;;;12.90;;
4355;SDS011;64374;51.482;7.408;2022-12-07T04:49:39;18.23;;;11.27;;
4355;SDS011;64374;51.482;7.408;2022-12-07T04:52:07;18.60;;;12.33;;
4355;SDS011;64374;51.482;7.408;2022-12-07T04:54:35;18.20;;;11.10;;
4355;SDS011;64374;51.482;7.408;2022-12-07T04:57:04;21.67;;;12.70;;
4355;SDS011;64374;51.482;7.408;2022-12-07T04:59:32;15.93;;;11.97;;
4355;SDS011;64374;51.482;7.408;2022-12-07T05:02:01;21.27;;;13.17;;
4355;SDS011;64374;51.482;7.408;2022-12-07T05:04:29;18.47;;;12.27;;
4355;SDS011;64374;51.482;7.408;2022-12-07T05:06:59;23.63;;;12.20;;
4355;SDS011;64374;51.482;7.408;2022-12-07T05:09:27;22.57;;;13.60;;
4355;SDS011;64374;51.482;7.408;2022-12-07T05:11:55;21.67;;;13.40;;
4355;SDS011;64374;51.482;7.408;2022-12-07T05:14:23;21.40;;;12.93;;
4355;SDS011;64374;51.482;7.408;2022-12-07T05:16:52;20.80;;;13.30;;
4355;SDS011;64374;51.482;7.408;2022-12-07T05:19:23;18.90;;;12.73;;
4355;SDS011;64374;51.482;7.408;2022-12-07T05:21:53;22.50;;;12.87;;
4355;SDS011;64374;51.482;7.408;2022-12-07T05:24:25;20.20;;;11.90;;
4355;SDS011;64374;51.482;7.408;2022-12-07T05:26:53;24.37;;;12.70;;
4355;SDS011;64374;51.482;7.408;2022-12-07T05:29:21;20.33;;;12.40;;
4355;SDS011;64374;51.482;7.408;2022-12-07T05:31:50;21.83;;;12.97;;
4355;SDS011;64374;51.482;7.408;2022-12-07T05:34:19;25.97;;;12.43;;
4355;SDS011;64374;51.482;7.408;2022-12-07T05:36:48;21.00;;;12.83;;
4355;SDS011;64374;51.482;7.408;2022-12-07T05:39:16;27.67;;;14.13;;
4355;SDS011;64374;51.482;7.408;2022-12-07T05:41:48;18.20;;;12.07;;
4355;SDS011;64374;51.482;7.408;2022-12-07T05:44:35;25.13;;;13.80;;
4355;SDS011;64374;51.482;7.408;2022-12-07T05:47:13;21.97;;;13.37;;
4355;SDS011;64374;51.482;7.408;2022-12-07T05:49:42;19.63;;;12.47;;
4355;SDS011;64374;51.482;7.408;2022-12-07T05:52:11;21.40;;;11.80;;
4355;SDS011;64374;51.482;7.408;2022-12-07T05:54:39;26.93;;;13.40;;
4355;SDS011;64374;51.482;7.408;2022-12-07T05:57:09;19.97;;;12.03;;
4355;SDS011;64374;51.482;7.408;2022-12-07T05:59:37;25.17;;;13.03;;
4355;SDS011;64374;51.482;7.408;2022-12-07T06:02:05;22.80;;;12.07;;
4355;SDS011;64374;51.482;7.408;2022-12-07T06:04:43;25.03;;;13.80;;
4355;SDS011;64374;51.482;7.408;2022-12-07T06:07:15;27.80;;;13.10;;
4355;SDS011;64374;51.482;7.408;2022-12-07T06:09:44;22.63;;;11.17;;
4355;SDS011;64374;51.482;7.408;2022-12-07T06:12:14;22.00;;;12.33;;
4355;SDS011;64374;51.482;7.408;2022-12-07T06:15:00;19.83;;;11.77;;
4355;SDS011;64374;51.482;7.408;2022-12-07T06:17:28;24.13;;;14.37;;
4355;SDS011;64374;51.482;7.408;2022-12-07T06:20:04;19.50;;;13.67;;
4355;SDS011;64374;51.482;7.408;2022-12-07T06:22:33;25.17;;;13.90;;
4355;SDS011;64374;51.482;7.408;2022-12-07T06:25:02;23.53;;;12.50;;
4355;SDS011;64374;51.482;7.408;2022-12-07T06:27:35;22.57;;;11.93;;
4355;SDS011;64374;51.482;7.408;2022-12-07T06:30:04;19.13;;;12.77;;
4355;SDS011;64374;51.482;7.408;2022-12-07T06:32:35;28.33;;;12.03;;
4355;SDS011;64374;51.482;7.408;2022-12-07T06:35:05;23.97;;;14.57;;
4355;SDS011;64374;51.482;7.408;2022-12-07T06:37:33;20.00;;;13.30;;
4355;SDS011;64374;51.482;7.408;2022-12-07T06:40:02;28.07;;;13.70;;
4355;SDS011;64374;51.482;7.408;2022-12-07T06:42:31;27.57;;;13.90;;
4355;SDS011;64374;51.482;7.408;2022-12-07T06:45:01;24.43;;;13.30;;
4355;SDS011;64374;51.482;7.408;2022-12-07T06:47:30;21.07;;;13.27;;
4355;SDS011;64374;51.482;7.408;2022-12-07T06:50:10;20.57;;;12.20;;
4355;SDS011;64374;51.482;7.408;2022-12-07T06:52:38;24.70;;;13.67;;
4355;SDS011;64374;51.482;7.408;2022-12-07T06:55:07;25.10;;;13.37;;
4355;SDS011;64374;51.482;7.408;2022-12-07T06:57:35;20.77;;;13.10;;
4355;SDS011;64374;51.482;7.408;2022-12-07T07:00:06;18.73;;;12.10;;
4355;SDS011;64374;51.482;7.408;2022-12-07T07:02:36;20.43;;;12.93;;
4355;SDS011;64374;51.482;7.408;2022-12-07T07:05:04;19.10;;;11.90;;
4355;SDS011;64374;51.482;7.408;2022-12-07T07:07:32;22.30;;;11.37;;
4355;SDS011;64374;51.482;7.408;2022-12-07T07:10:21;21.00;;;12.37;;
4355;SDS011;64374;51.482;7.408;2022-12-07T07:12:49;21.03;;;12.30;;
4355;SDS011;64374;51.482;7.408;2022-12-07T07:15:24;14.50;;;9.70;;
4355;SDS011;64374;51.482;7.408;2022-12-07T07:17:53;22.03;;;12.30;;
4355;SDS011;64374;51.482;7.408;2022-12-07T07:20:30;23.10;;;11.20;;
4355;SDS011;64374;51.482;7.408;2022-12-07T07:22:58;22.30;;;11.67;;
4355;SDS011;64374;51.482;7.408;2022-12-07T07:25:27;23.27;;;11.60;;
4355;SDS011;64374;51.482;7.408;2022-12-07T07:27:55;19.87;;;10.77;;
4355;SDS011;64374;51.482;7.408;2022-12-07T07:30:24;22.63;;;11.23;;
4355;SDS011;64374;51.482;7.408;2022-12-07T07:32:55;15.00;;;10.80;;
4355;SDS011;64374;51.482;7.408;2022-12-07T07:35:24;22.40;;;12.00;;
4355;SDS011;64374;51.482;7.408;2022-12-07T07:37:55;18.27;;;9.77;;
4355;SDS011;64374;51.482;7.408;2022-12-07T07:40:23;21.83;;;10.87;;
4355;SDS011;64374;51.482;7.408;2022-12-07T07:42:52;15.17;;;9.73;;
4355;SDS011;64374;51.482;7.408;2022-12-07T07:45:22;25.27;;;9.87;;
4355;SDS011;64374;51.482;7.408;2022-12-07T07:47:53;24.73;;;13.17;;
4355;SDS011;64374;51.482;7.408;2022-12-07T07:50:22;15.63;;;10.60;;
4355;SDS011;64374;51.482;7.408;2022-12-07T07:52:50;22.23;;;10.90;;
4355;SDS011;64374;51.482;7.408;2022-12-07T07:55:19;18.87;;;9.83;;
4355;SDS011;64374;51.482;7.408;2022-12-07T07:57:47;19.20;;;9.43;;
4355;SDS011;64374;51.482;7.408;2022-12-07T08:00:21;17.00;;;9.53;;
4355;SDS011;64374;51.482;7.408;2022-12-07T08:02:51;17.87;;;10.57;;
4355;SDS011;64374;51.482;7.408;2022-12-07T08:05:19;15.10;;;8.77;;
4355;SDS011;64374;51.482;7.408;2022-12-07T08:07:47;21.77;;;10.27;;
4355;SDS011;64374;51.482;7.408;2022-12-07T08:10:18;13.47;;;8.17;;
4355;SDS011;64374;51.482;7.408;2022-12-07T08:12:46;18.13;;;9.33;;
4355;SDS011;64374;51.482;7.408;2022-12-07T08:15:32;17.53;;;8.93;;
4355;SDS011;64374;51.482;7.408;2022-12-07T08:18:01;33.87;;;11.40;;
4355;SDS011;64374;51.482;7.408;2022-12-07T08:20:32;13.40;;;8.20;;
4355;SDS011;64374;51.482;7.408;2022-12-07T08:23:01;12.67;;;8.00;;
4355;SDS011;64374;51.482;7.408;2022-12-07T08:25:30;13.97;;;8.13;;
4355;SDS011;64374;51.482;7.408;2022-12-07T08:28:00;12.30;;;6.80;;
4355;SDS011;64374;51.482;7.408;2022-12-07T08:30:36;19.33;;;8.30;;
4355;SDS011;64374;51.482;7.408;2022-12-07T08:33:05;19.53;;;8.53;;
4355;SDS011;64374;51.482;7.408;2022-12-07T08:35:33;15.40;;;8.83;;
4355;SDS011;64374;51.482;7.408;2022-12-07T08:38:02;24.23;;;10.17;;
4355;SDS011;64374;51.482;7.408;2022-12-07T08:40:31;16.80;;;8.10;;
4355;SDS011;64374;51.482;7.408;2022-12-07T08:42:59;11.67;;;7.13;;
4355;SDS011;64374;51.482;7.408;2022-12-07T08:45:31;20.13;;;7.83;;
4355;SDS011;64374;51.482;7.408;2022-12-07T08:48:03;15.63;;;7.90;;
4355;SDS011;64374;51.482;7.408;2022-12-07T08:50:36;17.93;;;7.97;;
4355;SDS011;64374;51.482;7.408;2022-12-07T08:53:13;15.70;;;7.73;;
4355;SDS011;64374;51.482;7.408;2022-12-07T08:55:44;17.27;;;7.87;;
4355;SDS011;64374;51.482;7.408;2022-12-07T08:58:13;19.90;;;9.57;;
4355;SDS011;64374;51.482;7.408;2022-12-07T09:00:47;14.87;;;7.37;;
4355;SDS011;64374;51.482;7.408;2022-12-07T09:03:17;22.10;;;8.50;;
4355;SDS011;64374;51.482;7.408;2022-12-07T09:05:47;19.30;;;8.70;;
4355;SDS011;64374;51.482;7.408;2022-12-07T09:08:18;18.37;;;9.53;;
4355;SDS011;64374;51.482;7.408;2022-12-07T09:10:54;22.60;;;10.30;;
4355;SDS011;64374;51.482;7.408;2022-12-07T09:13:25;15.87;;;8.57;;
4355;SDS011;64374;51.482;7.408;2022-12-07T09:15:53;22.50;;;9.33;;
4355;SDS011;64374;51.482;7.408;2022-12-07T09:18:23;22.97;;;10.43;;
4355;SDS011;64374;51.482;7.408;2022-12-07T09:20:55;12.53;;;7.40;;
4355;SDS011;64374;51.482;7.408;2022-12-07T09:23:24;21.77;;;10.00;;
4355;SDS011;64374;51.482;7.408;2022-12-07T09:25:52;15.60;;;8.53;;
4355;SDS011;64374;51.482;7.408;2022-12-07T09:28:20;23.67;;;10.80;;
4355;SDS011;64374;51.482;7.408;2022-12-07T09:30:56;14.77;;;9.00;;
4355;SDS011;64374;51.482;7.408;2022-12-07T09:33:53;15.47;;;9.10;;
4355;SDS011;64374;51.482;7.408;2022-12-07T09:36:25;14.47;;;8.27;;
4355;SDS011;64374;51.482;7.408;2022-12-07T09:38:54;16.40;;;8.90;;
4355;SDS011;64374;51.482;7.408;2022-12-07T09:41:23;18.10;;;8.67;;
4355;SDS011;64374;51.482;7.408;2022-12-07T09:43:52;14.10;;;7.70;;
4355;SDS011;64374;51.482;7.408;2022-12-07T09:46:26;17.83;;;8.00;;
4355;SDS011;64374;51.482;7.408;2022-12-07T09:48:56;20.47;;;8.97;;
4355;SDS011;64374;51.482;7.408;2022-12-07T09:51:24;14.97;;;8.33;;
4355;SDS011;64374;51.482;7.408;2022-12-07T09:53:54;16.30;;;9.20;;
4355;SDS011;64374;51.482;7.408;2022-12-07T09:56:29;16.70;;;8.53;;
4355;SDS011;64374;51.482;7.408;2022-12-07T09:58:58;14.63;;;8.90;;
4355;SDS011;64374;51.482;7.408;2022-12-07T10:01:28;16.47;;;8.50;;
4355;SDS011;64374;51.482;7.408;2022-12-07T10:04:05;15.57;;;9.60;;
4355;SDS011;64374;51.482;7.408;2022-12-07T10:06:39;12.70;;;9.53;;
4355;SDS011;64374;51.482;7.408;2022-12-07T10:09:10;16.67;;;10.10;;
4355;SDS011;64374;51.482;7.408;2022-12-07T10:14:31;18.83;;;11.80;;
4355;SDS011;64374;51.482;7.408;2022-12-07T10:20:21;24.90;;;12.90;;
4355;SDS011;64374;51.482;7.408;2022-12-07T10:22:55;23.63;;;12.17;;
4355;SDS011;64374;51.482;7.408;2022-12-07T10:25:27;20.00;;;12.77;;
4355;SDS011;64374;51.482;7.408;2022-12-07T10:27:59;26.03;;;13.50;;
4355;SDS011;64374;51.482;7.408;2022-12-07T10:30:46;19.20;;;11.40;;
4355;SDS011;64374;51.482;7.408;2022-12-07T10:33:27;17.07;;;11.93;;
4355;SDS011;64374;51.482;7.408;2022-12-07T10:35:58;16.23;;;10.97;;
4355;SDS011;64374;51.482;7.408;2022-12-07T10:38:28;23.53;;;12.73;;
4355;SDS011;64374;51.482;7.408;2022-12-07T10:41:06;22.00;;;12.50;;
4355;SDS011;64374;51.482;7.408;2022-12-07T10:43:35;20.17;;;12.67;;
4355;SDS011;64374;51.482;7.408;2022-12-07T10:46:13;17.50;;;9.90;;
4355;SDS011;64374;51.482;7.408;2022-12-07T10:49:04;18.30;;;10.97;;
4355;SDS011;64374;51.482;7.408;2022-12-07T10:51:52;21.00;;;10.90;;
4355;SDS011;64374;51.482;7.408;2022-12-07T10:54:30;14.17;;;8.50;;
4355;SDS011;64374;51.482;7.408;2022-12-07T10:57:10;14.87;;;8.23;;
4355;SDS011;64374;51.482;7.408;2022-12-07T11:00:00;26.20;;;8.50;;
4355;SDS011;64374;51.482;7.408;2022-12-07T11:02:36;14.03;;;7.70;;
4355;SDS011;64374;51.482;7.408;2022-12-07T11:05:20;18.00;;;8.33;;
4355;SDS011;64374;51.482;7.408;2022-12-07T11:08:01;16.90;;;7.03;;
4355;SDS011;64374;51.482;7.408;2022-12-07T11:10:36;12.60;;;7.97;;
4355;SDS011;64374;51.482;7.408;2022-12-07T11:13:17;13.30;;;6.80;;
4355;SDS011;64374;51.482;7.408;2022-12-07T11:21:55;13.43;;;5.37;;
4355;SDS011;64374;51.482;7.408;2022-12-07T11:24:27;11.60;;;6.30;;
4355;SDS011;64374;51.482;7.408;2022-12-07T11:27:09;25.13;;;7.23;;
4355;SDS011;64374;51.482;7.408;2022-12-07T11:29:47;11.37;;;7.50;;
4355;SDS011;64374;51.482;7.408;2022-12-07T11:32:25;19.27;;;6.97;;
4355;SDS011;64374;51.482;7.408;2022-12-07T11:35:11;12.83;;;5.60;;
4355;SDS011;64374;51.482;7.408;2022-12-07T11:37:47;12.67;;;5.60;;
4355;SDS011;64374;51.482;7.408;2022-12-07T11:40:22;15.13;;;6.30;;
4355;SDS011;64374;51.482;7.408;2022-12-07T11:42:55;16.70;;;6.87;;
4355;SDS011;64374;51.482;7.408;2022-12-07T11:45:32;11.93;;;6.50;;
4355;SDS011;64374;51.482;7.408;2022-12-07T11:48:02;15.37;;;5.70;;
4355;SDS011;64374;51.482;7.408;2022-12-07T11:50:39;9.40;;;5.40;;
4355;SDS011;64374;51.482;7.408;2022-12-07T11:53:10;9.03;;;5.43;;
4355;SDS011;64374;51.482;7.408;2022-12-07T11:55:47;9.03;;;5.47;;
4355;SDS011;64374;51.482;7.408;2022-12-07T11:58:23;11.30;;;5.23;;
4355;SDS011;64374;51.482;7.408;2022-12-07T12:01:08;7.67;;;4.60;;
4355;SDS011;64374;51.482;7.408;2022-12-07T12:03:47;11.40;;;5.97;;
4355;SDS011;64374;51.482;7.408;2022-12-07T12:06:19;15.00;;;5.53;;
4355;SDS011;64374;51.482;7.408;2022-12-07T12:08:53;10.10;;;4.70;;
4355;SDS011;64374;51.482;7.408;2022-12-07T12:11:49;6.20;;;4.37;;
4355;SDS011;64374;51.482;7.408;2022-12-07T12:15:16;9.07;;;4.20;;
4355;SDS011;64374;51.482;7.408;2022-12-07T12:17:54;11.90;;;5.30;;
4355;SDS011;64374;51.482;7.408;2022-12-07T12:20:36;10.53;;;4.20;;
4355;SDS011;64374;51.482;7.408;2022-12-07T12:23:11;18.37;;;4.60;;
4355;SDS011;64374;51.482;7.408;2022-12-07T12:25:42;9.17;;;3.90;;
4355;SDS011;64374;51.482;7.408;2022-12-07T12:28:20;7.93;;;3.80;;
4355;SDS011;64374;51.482;7.408;2022-12-07T12:31:05;10.03;;;3.73;;
4355;SDS011;64374;51.482;7.408;2022-12-07T12:33:36;4.57;;;2.80;;
4355;SDS011;64374;51.482;7.408;2022-12-07T12:39:08;9.60;;;4.00;;
4355;SDS011;64374;51.482;7.408;2022-12-07T12:41:59;11.30;;;3.73;;
4355;SDS011;64374;51.482;7.408;2022-12-07T12:44:43;8.00;;;3.40;;
4355;SDS011;64374;51.482;7.408;2022-12-07T12:47:39;6.13;;;3.33;;
4355;SDS011;64374;51.482;7.408;2022-12-07T12:50:24;6.37;;;2.80;;
4355;SDS011;64374;51.482;7.408;2022-12-07T12:52:56;13.07;;;3.30;;
4355;SDS011;64374;51.482;7.408;2022-12-07T12:58:36;10.30;;;3.30;;
4355;SDS011;64374;51.482;7.408;2022-12-07T13:04:27;6.63;;;3.13;;
4355;SDS011;64374;51.482;7.408;2022-12-07T13:07:47;6.80;;;2.70;;
4355;SDS011;64374;51.482;7.408;2022-12-07T13:10:34;9.10;;;3.00;;
4355;SDS011;64374;51.482;7.408;2022-12-07T13:22:48;7.57;;;2.17;;
4355;SDS011;64374;51.482;7.408;2022-12-07T13:25:30;8.00;;;2.10;;
4355;SDS011;64374;51.482;7.408;2022-12-07T13:28:07;4.73;;;2.27;;
4355;SDS011;64374;51.482;7.408;2022-12-07T13:30:45;5.90;;;2.90;;
4355;SDS011;64374;51.482;7.408;2022-12-07T13:33:17;6.20;;;2.40;;
4355;SDS011;64374;51.482;7.408;2022-12-07T13:35:47;6.50;;;2.30;;
4355;SDS011;64374;51.482;7.408;2022-12-07T13:38:19;5.03;;;2.63;;
4355;SDS011;64374;51.482;7.408;2022-12-07T13:41:01;3.10;;;1.97;;
4355;SDS011;64374;51.482;7.408;2022-12-07T13:43:30;6.10;;;2.60;;
4355;SDS011;64374;51.482;7.408;2022-12-07T13:46:06;10.87;;;2.93;;
4355;SDS011;64374;51.482;7.408;2022-12-07T13:48:44;2.40;;;2.10;;
4355;SDS011;64374;51.482;7.408;2022-12-07T13:51:19;6.00;;;2.30;;
4355;SDS011;64374;51.482;7.408;2022-12-07T13:53:52;5.60;;;2.53;;
4355;SDS011;64374;51.482;7.408;2022-12-07T13:56:21;10.27;;;2.77;;
4355;SDS011;64374;51.482;7.408;2022-12-07T13:58:56;11.03;;;2.70;;
4355;SDS011;64374;51.482;7.408;2022-12-07T14:01:24;4.37;;;2.67;;
4355;SDS011;64374;51.482;7.408;2022-12-07T14:03:53;6.80;;;3.83;;
4355;SDS011;64374;51.482;7.408;2022-12-07T14:06:25;9.87;;;3.77;;
4355;SDS011;64374;51.482;7.408;2022-12-07T14:09:07;4.50;;;2.40;;
4355;SDS011;64374;51.482;7.408;2022-12-07T14:11:36;12.53;;;3.03;;
4355;SDS011;64374;51.482;7.408;2022-12-07T14:14:05;7.87;;;3.00;;
4355;SDS011;64374;51.482;7.408;2022-12-07T14:16:36;14.03;;;5.30;;
4355;SDS011;64374;51.482;7.408;2022-12-07T14:19:21;10.80;;;4.00;;
4355;SDS011;64374;51.482;7.408;2022-12-07T14:22:19;5.87;;;2.93;;
4355;SDS011;64374;51.482;7.408;2022-12-07T14:27:52;5.43;;;2.07;;
4355;SDS011;64374;51.482;7.408;2022-12-07T14:30:25;6.07;;;1.70;;
4355;SDS011;64374;51.482;7.408;2022-12-07T14:32:56;3.83;;;1.73;;
4355;SDS011;64374;51.482;7.408;2022-12-07T14:35:27;2.97;;;1.60;;
4355;SDS011;64374;51.482;7.408;2022-12-07T14:37:56;4.53;;;2.00;;
4355;SDS011;64374;51.482;7.408;2022-12-07T14:40:28;3.83;;;1.77;;
4355;SDS011;64374;51.482;7.408;2022-12-07T14:43:02;3.53;;;1.80;;
4355;SDS011;64374;51.482;7.408;2022-12-07T14:45:32;3.80;;;1.43;;
4355;SDS011;64374;51.482;7.408;2022-12-07T14:48:01;2.50;;;1.47;;
4355;SDS011;64374;51.482;7.408;2022-12-07T14:50:50;4.33;;;1.80;;
4355;SDS011;64374;51.482;7.408;2022-12-07T14:53:41;7.00;;;2.47;;
4355;SDS011;64374;51.482;7.408;2022-12-07T14:56:20;4.07;;;2.00;;
4355;SDS011;64374;51.482;7.408;2022-12-07T14:58:48;5.03;;;2.70;;
4355;SDS011;64374;51.482;7.408;2022-12-07T15:01:16;4.70;;;2.10;;
4355;SDS011;64374;51.482;7.408;2022-12-07T15:03:45;5.87;;;2.80;;
4355;SDS011;64374;51.482;7.408;2022-12-07T15:06:17;8.70;;;3.80;;
4355;SDS011;64374;51.482;7.408;2022-12-07T15:08:45;4.33;;;2.17;;
4355;SDS011;64374;51.482;7.408;2022-12-07T15:11:14;9.90;;;2.70;;
4355;SDS011;64374;51.482;7.408;2022-12-07T15:13:52;8.57;;;3.67;;
4355;SDS011;64374;51.482;7.408;2022-12-07T15:16:38;5.27;;;3.10;;
4355;SDS011;64374;51.482;7.408;2022-12-07T15:19:28;5.93;;;3.50;;
4355;SDS011;64374;51.482;7.408;2022-12-07T15:21:57;15.83;;;4.60;;
4355;SDS011;64374;51.482;7.408;2022-12-07T15:24:26;6.87;;;4.27;;
4355;SDS011;64374;51.482;7.408;2022-12-07T15:26:54;11.60;;;4.30;;
4355;SDS011;64374;51.482;7.408;2022-12-07T15:29:24;10.30;;;5.37;;
4355;SDS011;64374;51.482;7.408;2022-12-07T15:31:52;7.20;;;3.10;;
4355;SDS011;64374;51.482;7.408;2022-12-07T15:34:24;7.23;;;3.37;;
4355;SDS011;64374;51.482;7.408;2022-12-07T15:37:06;14.53;;;3.93;;
4355;SDS011;64374;51.482;7.408;2022-12-07T15:39:35;6.17;;;3.57;;
4355;SDS011;64374;51.482;7.408;2022-12-07T15:42:03;8.97;;;3.80;;
4355;SDS011;64374;51.482;7.408;2022-12-07T15:44:33;13.57;;;4.50;;
4355;SDS011;64374;51.482;7.408;2022-12-07T15:47:19;12.23;;;4.73;;
4355;SDS011;64374;51.482;7.408;2022-12-07T15:49:48;11.37;;;5.90;;
4355;SDS011;64374;51.482;7.408;2022-12-07T15:52:16;13.57;;;5.47;;
4355;SDS011;64374;51.482;7.408;2022-12-07T15:54:45;11.27;;;6.13;;
4355;SDS011;64374;51.482;7.408;2022-12-07T15:57:15;15.40;;;6.07;;
4355;SDS011;64374;51.482;7.408;2022-12-07T15:59:52;7.53;;;5.00;;